Bryantville, Massachusetts
Current Conditions -  °F | °C
As of 12:55 PM on Saturday 20 Dec 2014 (Local Time) from KGHG Reporting Station
Light Snow Light Snow  
Wind Chill: 29°   Ceiling: 500
Heat Index: 36°   Visibility: 3mi
Dew Point: 34°   Wind: 8mph
Humidity: 93%   Direction: 360°N
Pressure: 30.26"   Gusts: 18mph
Location:  42.04°N, 70.84°W
Report Text: KGHG 201755Z AUTO 36007G16KT 010V350 3SM -SN OVC005 02/01 A3026 RMK AO2
Loading
Personal Weather Stations






























Interactive Weather Map New forecast layout! Learn more

10-Day Weather Forecast

Advertisements
Track Severe Weather on mobile